createdAt,value
2018-07-30T00:00:16.393Z,101410.25
2018-07-30T00:02:45.221Z,101407.58
2018-07-30T00:05:13.366Z,101408.45
2018-07-30T00:07:41.749Z,101403.66
2018-07-30T00:10:09.397Z,101400.33
2018-07-30T00:12:37.503Z,101398.12
2018-07-30T00:15:05.327Z,101391.95
2018-07-30T00:17:32.954Z,101401.75
2018-07-30T00:20:00.982Z,101405.36
2018-07-30T00:22:28.732Z,101403.66
2018-07-30T00:24:56.410Z,101406.78
2018-07-30T00:27:24.137Z,101407.24
2018-07-30T00:29:52.113Z,101400.20
2018-07-30T00:32:20.076Z,101401.53
2018-07-30T00:34:47.741Z,101400.58
2018-07-30T00:37:15.458Z,101394.87
2018-07-30T00:39:43.423Z,101388.20
2018-07-30T00:42:11.492Z,101383.82
2018-07-30T00:44:39.496Z,101381.62
2018-07-30T00:47:07.167Z,101383.82
2018-07-30T00:49:35.478Z,101376.69
2018-07-30T00:52:03.461Z,101375.36
2018-07-30T00:54:31.069Z,101373.62
2018-07-30T00:56:59.585Z,101375.45
2018-07-30T00:59:27.238Z,101371.06
2018-07-30T01:01:55.256Z,101374.95
2018-07-30T01:04:23.198Z,101379.44
2018-07-30T01:06:50.870Z,101370.58
2018-07-30T01:09:18.870Z,101366.20
2018-07-30T01:11:46.519Z,101369.73
2018-07-30T01:14:15.278Z,101372.40
2018-07-30T01:16:44.144Z,101377.23
2018-07-30T01:19:11.865Z,101372.40
2018-07-30T01:21:39.610Z,101376.40
2018-07-30T01:24:07.587Z,101371.06
2018-07-30T01:26:35.588Z,101373.33
2018-07-30T01:29:03.450Z,101365.32
2018-07-30T01:31:31.095Z,101372.95
2018-07-30T01:33:58.764Z,101378.66
2018-07-30T01:36:26.385Z,101370.73
2018-07-30T01:38:54.035Z,101373.41
2018-07-30T01:41:22.333Z,101376.08
2018-07-30T01:43:50.453Z,101379.69
2018-07-30T01:46:18.437Z,101385.03
2018-07-30T01:48:46.648Z,101386.45
2018-07-30T01:51:14.322Z,101385.11
2018-07-30T01:53:41.921Z,101383.89
2018-07-30T01:56:09.884Z,101375.48
2018-07-30T01:58:37.554Z,101373.31
2018-07-30T02:01:05.596Z,101376.90
2018-07-30T02:03:33.298Z,101377.31
2018-07-30T02:06:00.986Z,101375.65
2018-07-30T02:08:28.662Z,101386.31
2018-07-30T02:10:56.562Z,101384.52
2018-07-30T02:13:24.248Z,101388.06
2018-07-30T02:15:52.101Z,101388.52
2018-07-30T02:18:19.701Z,101388.57
2018-07-30T02:20:47.606Z,101389.44
2018-07-30T02:23:15.544Z,101384.11
2018-07-30T02:25:43.281Z,101385.44
2018-07-30T02:28:10.961Z,101395.19
2018-07-30T02:30:38.616Z,101382.40
2018-07-30T02:33:06.682Z,101387.73
2018-07-30T02:35:34.653Z,101394.77
2018-07-30T02:38:02.720Z,101390.86
2018-07-30T02:40:30.371Z,101394.48
2018-07-30T02:42:58.280Z,101384.19
2018-07-30T02:45:26.308Z,101389.44
2018-07-30T02:47:54.469Z,101393.44
2018-07-30T02:50:22.130Z,101397.44
2018-07-30T02:52:49.749Z,101389.91
2018-07-30T02:55:17.724Z,101383.23
2018-07-30T02:57:45.830Z,101385.06
2018-07-30T03:00:13.866Z,101394.77
2018-07-30T03:02:41.673Z,101401.44
2018-07-30T03:05:09.725Z,101399.19
2018-07-30T03:07:37.340Z,101397.85
2018-07-30T03:10:05.268Z,101394.31
2018-07-30T03:12:32.978Z,101394.77
2018-07-30T03:15:00.602Z,101395.23
2018-07-30T03:17:28.482Z,101407.73
2018-07-30T03:19:56.124Z,101399.81
2018-07-30T03:22:24.092Z,101398.02
2018-07-30T03:24:52.337Z,101397.61
2018-07-30T03:27:20.537Z,101402.94
2018-07-30T03:29:48.875Z,101398.10
2018-07-30T03:32:16.537Z,101400.27
2018-07-30T03:34:44.455Z,101401.60
2018-07-30T03:37:12.108Z,101396.77
2018-07-30T03:39:39.713Z,101394.56
2018-07-30T03:42:07.412Z,101392.77
2018-07-30T03:44:35.030Z,101396.77
2018-07-30T03:47:02.780Z,101396.36
2018-07-30T03:49:30.442Z,101402.64
2018-07-30T03:51:58.118Z,101397.31
2018-07-30T03:54:26.157Z,101398.18
2018-07-30T03:56:54.146Z,101406.18
2018-07-30T03:59:21.792Z,101409.80
2018-07-30T04:01:49.865Z,101404.93
2018-07-30T04:04:17.873Z,101406.72
2018-07-30T04:06:45.860Z,101403.14
2018-07-30T04:09:14.407Z,101417.39
2018-07-30T04:11:42.249Z,101408.93
2018-07-30T04:14:09.852Z,101412.17
2018-07-30T04:16:46.604Z,101420.63
2018-07-30T04:19:14.304Z,101421.09
2018-07-30T04:21:41.940Z,101426.42
2018-07-30T04:24:09.577Z,101430.41
2018-07-30T04:26:37.631Z,101428.25
2018-07-30T04:29:05.416Z,101433.95
2018-07-30T04:31:33.086Z,101441.49
2018-07-30T04:34:00.709Z,101437.58
2018-07-30T04:36:29.018Z,101441.58
2018-07-30T04:38:56.872Z,101438.50
2018-07-30T04:41:24.550Z,101436.24
2018-07-30T04:43:52.311Z,101434.41
2018-07-30T04:46:19.915Z,101446.83
2018-07-30T04:48:47.578Z,101428.55
2018-07-30T04:51:15.673Z,101430.25
2018-07-30T04:53:43.366Z,101426.25
2018-07-30T04:56:11.038Z,101436.84
2018-07-30T04:58:38.700Z,101428.34
2018-07-30T05:01:06.365Z,101435.12
2018-07-30T05:03:34.349Z,101441.22
2018-07-30T05:06:02.349Z,101446.55
2018-07-30T05:08:29.974Z,101453.22
2018-07-30T05:10:58.121Z,101450.00
2018-07-30T05:13:26.123Z,101453.05
2018-07-30T05:15:53.790Z,101460.89
2018-07-30T05:18:21.421Z,101461.77
2018-07-30T05:20:49.063Z,101459.47
2018-07-30T05:23:17.233Z,101464.34
2018-07-30T05:25:45.120Z,101465.10
2018-07-30T05:28:13.678Z,101463.69
2018-07-30T05:30:41.604Z,101467.61
2018-07-30T05:33:09.243Z,101473.73
2018-07-30T05:35:37.345Z,101471.52
2018-07-30T05:38:05.030Z,101475.98
2018-07-30T05:40:32.905Z,101476.40
2018-07-30T05:43:01.527Z,101482.66
2018-07-30T05:45:29.720Z,101479.23
2018-07-30T05:47:57.370Z,101481.89
2018-07-30T05:50:25.358Z,101485.02
2018-07-30T05:52:53.274Z,101495.23
2018-07-30T05:55:21.205Z,101492.94
2018-07-30T05:57:48.837Z,101484.94
2018-07-30T06:00:16.594Z,101485.32
2018-07-30T06:02:44.252Z,101486.66
2018-07-30T06:05:12.331Z,101490.11
2018-07-30T06:07:39.942Z,101494.03
2018-07-30T06:10:08.082Z,101493.00
2018-07-30T06:12:36.057Z,101502.43
2018-07-30T06:15:04.427Z,101509.23
2018-07-30T06:17:32.019Z,101504.49
2018-07-30T06:20:00.012Z,101509.28
2018-07-30T06:22:28.220Z,101517.58
2018-07-30T06:24:56.189Z,101514.34
2018-07-30T06:27:23.901Z,101517.01
2018-07-30T06:29:51.889Z,101520.93
2018-07-30T06:32:19.569Z,101524.77
2018-07-30T06:34:47.189Z,101523.81
2018-07-30T06:37:16.049Z,101522.39
2018-07-30T06:39:43.963Z,101520.02
2018-07-30T06:42:11.599Z,101520.98
2018-07-30T06:44:39.249Z,101527.19
2018-07-30T06:47:07.203Z,101522.14
2018-07-30T06:49:35.216Z,101527.37
2018-07-30T06:52:02.863Z,101533.20
2018-07-30T06:54:31.104Z,101526.69
2018-07-30T06:56:59.078Z,101533.53
2018-07-30T06:59:26.993Z,101532.31
2018-07-30T07:01:55.547Z,101532.02
2018-07-30T07:04:23.537Z,101532.94
2018-07-30T07:06:51.571Z,101527.22
2018-07-30T07:09:19.277Z,101527.22
2018-07-30T07:11:46.972Z,101535.22
2018-07-30T07:14:15.170Z,101534.86
2018-07-30T07:16:43.230Z,101543.95
2018-07-30T07:19:11.096Z,101551.14
2018-07-30T07:21:38.805Z,101551.22
2018-07-30T07:24:06.454Z,101552.34
2018-07-30T07:26:34.552Z,101553.52
2018-07-30T07:29:02.760Z,101560.78
2018-07-30T07:31:31.065Z,101561.37
2018-07-30T07:33:58.984Z,101563.41
2018-07-30T07:36:26.664Z,101568.46
2018-07-30T07:38:54.334Z,101563.83
2018-07-30T07:41:22.225Z,101567.51
2018-07-30T07:43:50.505Z,101569.42
2018-07-30T07:46:18.490Z,101566.54
2018-07-30T07:48:46.435Z,101568.45
2018-07-30T07:51:14.198Z,101570.71
2018-07-30T07:53:41.858Z,101573.80
2018-07-30T07:56:09.550Z,101577.80
2018-07-30T07:58:37.237Z,101575.50
2018-07-30T08:01:05.155Z,101580.93
2018-07-30T08:03:33.119Z,101580.06
2018-07-30T08:06:01.101Z,101577.97
2018-07-30T08:08:29.014Z,101578.92
2018-07-30T08:10:57.078Z,101585.02
2018-07-30T08:13:24.697Z,101590.73
2018-07-30T08:15:52.463Z,101596.29
2018-07-30T08:18:20.777Z,101599.75
2018-07-30T08:20:49.441Z,101597.83
2018-07-30T08:23:17.646Z,101603.97
2018-07-30T08:25:45.268Z,101609.22
2018-07-30T08:28:13.520Z,101613.11
2018-07-30T08:30:41.160Z,101615.15
2018-07-30T08:33:09.200Z,101614.03
2018-07-30T08:35:37.148Z,101615.16
2018-07-30T08:38:05.224Z,101619.46
2018-07-30T08:40:32.846Z,101621.96
2018-07-30T08:43:01.064Z,101627.30
2018-07-30T08:45:28.790Z,101625.97
2018-07-30T08:47:56.473Z,101631.69
2018-07-30T08:50:24.144Z,101627.30
2018-07-30T08:52:52.200Z,101634.77
2018-07-30T08:55:20.210Z,101634.77
2018-07-30T08:57:47.862Z,101637.52
2018-07-30T09:00:15.912Z,101631.89
2018-07-30T09:02:43.547Z,101633.77
2018-07-30T09:05:11.268Z,101639.11
2018-07-30T09:07:39.332Z,101643.70
2018-07-30T09:10:08.127Z,101646.17
2018-07-30T09:12:36.440Z,101649.05
2018-07-30T09:15:04.554Z,101639.62
2018-07-30T09:17:32.534Z,101631.77
2018-07-30T09:20:00.209Z,101645.58
2018-07-30T09:22:27.861Z,101645.88
2018-07-30T09:24:55.865Z,101645.70
2018-07-30T09:27:23.511Z,101642.86
2018-07-30T09:29:51.505Z,101645.83
2018-07-30T09:32:19.429Z,101642.03
2018-07-30T09:34:47.066Z,101646.70
2018-07-30T09:37:14.742Z,101642.98
2018-07-30T09:39:42.760Z,101647.29
2018-07-30T09:42:10.377Z,101651.21
2018-07-30T09:44:38.079Z,101647.12
2018-07-30T09:47:06.420Z,101650.55
2018-07-30T09:49:34.577Z,101646.86
2018-07-30T09:52:02.261Z,101645.05
2018-07-30T09:54:30.635Z,101644.48
2018-07-30T09:56:58.556Z,101644.09
2018-07-30T09:59:26.464Z,101643.34
2018-07-30T10:01:54.140Z,101648.28
2018-07-30T10:04:21.825Z,101646.02
2018-07-30T10:06:49.472Z,101648.28
2018-07-30T10:09:17.337Z,101658.05
2018-07-30T10:11:45.044Z,101653.08
2018-07-30T10:14:13.029Z,101652.98
2018-07-30T10:16:41.084Z,101651.16
2018-07-30T10:19:09.135Z,101649.65
2018-07-30T10:21:36.809Z,101651.73
2018-07-30T10:24:04.525Z,101648.89
2018-07-30T10:26:32.582Z,101648.52
2018-07-30T10:29:00.238Z,101645.92
2018-07-30T10:31:28.363Z,101646.39
2018-07-30T10:33:56.258Z,101642.97
2018-07-30T10:36:23.899Z,101641.25
2018-07-30T10:38:51.900Z,101642.00
2018-07-30T10:41:19.543Z,101639.70
2018-07-30T10:43:47.435Z,101641.66
2018-07-30T10:46:15.171Z,101639.36
2018-07-30T10:48:42.823Z,101640.69
2018-07-30T10:51:10.496Z,101637.44
2018-07-30T10:53:38.914Z,101638.25
2018-07-30T10:56:07.097Z,101637.66
2018-07-30T10:58:35.082Z,101636.62
2018-07-30T11:01:03.079Z,101626.22
2018-07-30T11:03:30.745Z,101635.68
2018-07-30T11:05:58.657Z,101630.98
2018-07-30T11:08:26.554Z,101626.34
2018-07-30T11:10:54.218Z,101631.01
2018-07-30T11:13:22.130Z,101620.59
2018-07-30T11:15:50.097Z,101624.89
2018-07-30T11:18:17.995Z,101620.33
2018-07-30T11:20:45.938Z,101620.61
2018-07-30T11:23:14.189Z,101627.58
2018-07-30T11:25:42.120Z,101627.27
2018-07-30T11:28:10.029Z,101626.72
2018-07-30T11:30:37.679Z,101634.65
2018-07-30T11:33:06.293Z,101630.82
2018-07-30T11:35:34.134Z,101631.20
2018-07-30T11:38:01.795Z,101634.83
2018-07-30T11:40:29.791Z,101637.69
2018-07-30T11:42:57.513Z,101637.31
2018-07-30T11:45:25.202Z,101639.99
2018-07-30T11:47:52.836Z,101641.70
2018-07-30T11:50:20.723Z,101636.45
2018-07-30T11:52:48.380Z,101639.52
2018-07-30T11:55:16.334Z,101635.98
2018-07-30T11:57:44.261Z,101631.50
2018-07-30T12:00:12.204Z,101632.75
2018-07-30T12:02:40.237Z,101628.23
2018-07-30T12:05:07.893Z,101628.14
2018-07-30T12:07:35.597Z,101630.64
2018-07-30T12:10:03.296Z,101629.67
2018-07-30T12:12:31.051Z,101622.80
2018-07-30T12:14:58.694Z,101622.14
2018-07-30T12:17:26.325Z,101615.92
2018-07-30T12:19:54.078Z,101619.16
2018-07-30T12:22:22.366Z,101611.50
2018-07-30T12:24:50.006Z,101612.30
2018-07-30T12:27:18.060Z,101618.98
2018-07-30T12:29:45.697Z,101617.28
2018-07-30T12:32:13.345Z,101614.10
2018-07-30T12:34:41.023Z,101611.98
2018-07-30T12:37:08.959Z,101613.23
2018-07-30T12:39:36.923Z,101611.89
2018-07-30T12:42:04.647Z,101610.18
2018-07-30T12:44:32.265Z,101611.52
2018-07-30T12:46:59.909Z,101607.97
2018-07-30T12:49:27.698Z,101617.25
2018-07-30T12:51:55.350Z,101616.28
2018-07-30T12:54:22.998Z,101612.92
2018-07-30T12:56:51.152Z,101614.53
2018-07-30T12:59:19.153Z,101608.52
2018-07-30T13:01:46.818Z,101615.49
2018-07-30T13:04:14.537Z,101609.35
2018-07-30T13:06:42.516Z,101609.72
2018-07-30T13:09:10.581Z,101610.20
2018-07-30T13:11:38.528Z,101611.35
2018-07-30T13:14:06.767Z,101614.58
2018-07-30T13:16:35.280Z,101610.47
2018-07-30T13:19:03.778Z,101615.33
2018-07-30T13:21:31.488Z,101505.07
2018-07-30T13:23:59.398Z,101607.17
2018-07-30T13:26:27.390Z,101609.45
2018-07-30T13:28:55.062Z,101604.59
2018-07-30T13:31:22.802Z,101604.05
2018-07-30T13:33:50.583Z,101595.33
2018-07-30T13:36:18.602Z,101596.39
2018-07-30T13:38:46.620Z,101600.91
2018-07-30T13:41:14.682Z,101601.19
2018-07-30T13:43:42.408Z,101593.98
2018-07-30T13:46:10.121Z,101603.64
2018-07-30T13:48:37.802Z,101598.19
2018-07-30T13:51:05.644Z,101594.34
2018-07-30T13:53:33.572Z,101597.97
2018-07-30T13:56:01.245Z,101590.55
2018-07-30T13:58:29.159Z,101582.95
2018-07-30T14:00:57.046Z,101577.53
2018-07-30T14:03:25.002Z,101582.30
2018-07-30T14:05:52.760Z,101573.34
2018-07-30T14:08:20.480Z,101580.12
2018-07-30T14:10:48.409Z,101577.70
2018-07-30T14:13:16.482Z,101576.16
2018-07-30T14:15:44.158Z,101568.85
2018-07-30T14:18:12.609Z,101565.50
2018-07-30T14:20:40.341Z,101564.89
2018-07-30T14:23:08.226Z,101564.46
2018-07-30T14:25:35.881Z,101561.47
2018-07-30T14:28:03.625Z,101555.63
2018-07-30T14:30:31.521Z,101551.52
2018-07-30T14:32:59.475Z,101557.70
2018-07-30T14:35:27.239Z,101560.19
2018-07-30T14:37:54.901Z,101552.49
2018-07-30T14:40:22.856Z,101549.85
2018-07-30T14:42:50.588Z,101548.39
2018-07-30T14:45:18.956Z,101552.22
2018-07-30T14:47:46.881Z,101551.86
2018-07-30T14:50:14.531Z,101542.88
2018-07-30T14:52:42.184Z,101546.91
2018-07-30T14:55:09.826Z,101549.33
2018-07-30T14:57:37.640Z,101541.38
2018-07-30T15:00:06.706Z,101544.92
2018-07-30T15:02:34.616Z,101551.58
2018-07-30T15:05:02.272Z,101546.09
2018-07-30T15:07:29.941Z,101545.48
2018-07-30T15:09:58.049Z,101542.91
2018-07-30T15:12:25.791Z,101536.53
2018-07-30T15:14:53.586Z,101536.39
2018-07-30T15:17:21.386Z,101537.48
2018-07-30T15:19:49.076Z,101536.91
2018-07-30T15:22:16.733Z,101531.59
2018-07-30T15:24:44.402Z,101528.72
2018-07-30T15:27:12.110Z,101527.11
2018-07-30T15:29:39.880Z,101526.03
2018-07-30T15:32:07.995Z,101527.83
2018-07-30T15:34:36.135Z,101529.41
2018-07-30T15:37:03.804Z,101530.86
2018-07-30T15:39:32.149Z,101528.25
2018-07-30T15:41:59.823Z,101529.52
2018-07-30T15:44:27.927Z,101534.02
2018-07-30T15:46:55.917Z,101528.45
2018-07-30T15:49:23.865Z,101532.42
2018-07-30T15:51:52.205Z,101527.61
2018-07-30T15:54:19.897Z,101518.06
2018-07-30T15:56:47.553Z,101526.35
2018-07-30T15:59:15.333Z,101522.03
2018-07-30T16:01:43.144Z,101522.73
2018-07-30T16:04:10.901Z,101522.68
2018-07-30T16:06:38.657Z,101517.55
2018-07-30T16:09:08.151Z,101515.95
2018-07-30T16:11:36.149Z,101516.58
2018-07-30T16:14:03.817Z,101519.42
2018-07-30T16:16:31.462Z,101511.30
2018-07-30T16:18:59.798Z,101512.60
2018-07-30T16:21:28.119Z,101513.57
2018-07-30T16:23:56.285Z,101519.14
2018-07-30T16:26:23.932Z,101512.28
2018-07-30T16:28:51.716Z,101511.75
2018-07-30T16:31:19.648Z,101509.52
2018-07-30T16:33:47.584Z,101512.23
2018-07-30T16:36:16.268Z,101508.66
2018-07-30T16:38:44.577Z,101510.77
2018-07-30T16:41:12.264Z,101497.94
2018-07-30T16:43:39.921Z,101504.64
2018-07-30T16:46:07.553Z,101502.73
2018-07-30T16:48:35.567Z,101499.27
2018-07-30T16:51:03.230Z,101496.95
2018-07-30T16:53:30.892Z,101500.61
2018-07-30T16:55:58.576Z,101496.30
2018-07-30T16:58:26.688Z,101494.69
2018-07-30T17:00:54.427Z,101501.09
2018-07-30T17:03:22.062Z,101499.48
2018-07-30T17:05:49.764Z,101501.63
2018-07-30T17:08:17.449Z,101500.89
2018-07-30T17:10:45.128Z,101499.28
2018-07-30T17:13:12.795Z,101501.45
2018-07-30T17:15:40.477Z,101505.58
2018-07-30T17:18:08.151Z,101500.35
2018-07-30T17:20:36.107Z,101502.59
2018-07-30T17:23:03.860Z,101502.55
2018-07-30T17:25:31.912Z,101398.38
2018-07-30T17:28:00.106Z,101505.13
2018-07-30T17:30:30.433Z,101496.36
2018-07-30T17:33:09.095Z,101501.24
2018-07-30T17:35:51.525Z,101499.08
2018-07-30T17:38:23.336Z,101502.98
2018-07-30T17:40:57.801Z,101503.27
2018-07-30T17:43:36.048Z,101508.43
2018-07-30T17:46:08.251Z,101511.83
2018-07-30T17:48:52.795Z,101513.11
2018-07-30T17:51:40.210Z,101507.70
2018-07-30T17:54:12.932Z,101507.96
2018-07-30T18:00:45.096Z,101516.94
2018-07-30T18:03:20.264Z,101519.09
2018-07-30T18:06:05.936Z,101519.33
2018-07-30T18:08:36.843Z,101510.13
2018-07-30T18:11:16.914Z,101515.08
2018-07-30T18:13:48.112Z,101515.63
2018-07-30T18:16:21.352Z,101395.48
2018-07-30T18:18:58.985Z,101507.41
2018-07-30T18:21:30.253Z,101516.59
2018-07-30T18:24:04.709Z,101518.50
2018-07-30T18:26:42.216Z,101512.24
2018-07-30T18:29:14.323Z,101489.12
2018-07-30T18:31:51.611Z,101514.69
2018-07-30T18:34:21.584Z,101518.23
2018-07-30T18:36:54.785Z,101515.29
2018-07-30T18:39:50.585Z,101510.00
2018-07-30T18:42:20.195Z,101512.44
2018-07-30T18:44:54.433Z,101510.03
2018-07-30T18:47:23.214Z,101517.70
2018-07-30T18:49:54.158Z,101516.73
2018-07-30T18:52:24.816Z,101514.19
2018-07-30T18:54:55.392Z,101514.85
2018-07-30T18:57:24.572Z,101514.65
2018-07-30T18:59:55.053Z,101519.16
2018-07-30T19:02:24.732Z,101517.88
2018-07-30T19:04:58.063Z,101530.23
2018-07-30T19:07:28.892Z,101536.45
2018-07-30T19:10:02.205Z,101534.09
2018-07-30T19:12:35.214Z,101539.73
2018-07-30T19:15:07.995Z,101543.11
2018-07-30T19:17:36.135Z,101541.59
2018-07-30T19:20:04.433Z,101549.44
2018-07-30T19:22:32.105Z,101543.91
2018-07-30T19:25:00.171Z,101538.75
2018-07-30T19:27:28.137Z,101541.14
2018-07-30T19:29:56.071Z,101542.90
2018-07-30T19:32:23.868Z,101540.13
2018-07-30T19:34:51.496Z,101544.24
2018-07-30T19:37:19.508Z,101546.36
2018-07-30T19:39:47.421Z,101543.94
2018-07-30T19:42:15.366Z,101538.12
2018-07-30T19:44:43.156Z,101539.86
2018-07-30T19:47:10.792Z,101547.70
2018-07-30T19:49:38.473Z,101546.55
2018-07-30T19:52:06.157Z,101544.09
2018-07-30T19:54:33.816Z,101541.13
2018-07-30T19:57:02.258Z,101542.66
2018-07-30T19:59:29.953Z,101542.47
2018-07-30T20:01:57.635Z,101540.84
2018-07-30T20:04:25.638Z,101541.41
2018-07-30T20:06:53.598Z,101535.77
2018-07-30T20:09:21.292Z,101536.83
2018-07-30T20:11:49.257Z,101538.37
2018-07-30T20:14:18.110Z,101539.90
2018-07-30T20:16:45.757Z,101544.09
2018-07-30T20:19:13.637Z,101548.19
2018-07-30T20:21:41.841Z,101546.16
2018-07-30T20:24:09.510Z,101552.94
2018-07-30T20:26:38.090Z,101555.70
2018-07-30T20:29:06.229Z,101558.95
2018-07-30T20:31:34.131Z,101559.14
2018-07-30T20:34:02.068Z,101559.72
2018-07-30T20:36:30.111Z,101561.33
2018-07-30T20:38:58.030Z,101561.04
2018-07-30T20:41:25.864Z,101559.31
2018-07-30T20:43:53.962Z,101562.72
2018-07-30T20:46:21.944Z,101559.27
2018-07-30T20:48:49.661Z,101556.73
2018-07-30T20:51:18.029Z,101562.33
2018-07-30T20:53:45.688Z,101565.34
2018-07-30T20:56:13.354Z,101568.97
2018-07-30T20:58:41.405Z,101570.39
2018-07-30T21:01:09.155Z,101568.00
2018-07-30T21:03:37.597Z,101567.41
2018-07-30T21:06:05.490Z,101564.91
2018-07-30T21:08:33.437Z,101568.05
2018-07-30T21:11:01.112Z,101570.33
2018-07-30T21:13:29.011Z,101575.38
2018-07-30T21:15:56.645Z,101575.83
2018-07-30T21:18:24.331Z,101575.33
2018-07-30T21:20:52.663Z,101569.02
2018-07-30T21:23:20.294Z,101574.73
2018-07-30T21:25:47.965Z,101569.69
2018-07-30T21:28:15.869Z,101575.86
2018-07-30T21:30:43.825Z,101583.91
2018-07-30T21:33:11.711Z,101581.98
2018-07-30T21:35:39.765Z,101582.73
2018-07-30T21:38:07.940Z,101581.02
2018-07-30T21:40:35.620Z,101580.95
2018-07-30T21:43:03.977Z,101575.08
2018-07-30T21:45:31.969Z,101554.50
2018-07-30T21:47:59.977Z,101575.41
2018-07-30T21:50:27.894Z,101577.75
2018-07-30T21:52:55.809Z,101584.73
2018-07-30T21:55:23.534Z,101580.59
2018-07-30T21:57:51.195Z,101574.19
2018-07-30T22:00:22.365Z,101574.84
2018-07-30T22:02:50.709Z,101577.29
2018-07-30T22:05:18.717Z,101576.65
2018-07-30T22:07:46.793Z,101569.88
2018-07-30T22:10:14.710Z,101580.88
2018-07-30T22:12:42.856Z,101577.03
2018-07-30T22:15:10.809Z,101575.09
2018-07-30T22:17:38.775Z,101575.02
2018-07-30T22:20:06.707Z,101576.20
2018-07-30T22:22:35.148Z,101576.81
2018-07-30T22:25:02.843Z,101576.50
2018-07-30T22:27:30.610Z,101572.13
2018-07-30T22:29:59.515Z,101574.80
2018-07-30T22:32:27.440Z,101564.52
2018-07-30T22:34:55.155Z,101566.03
2018-07-30T22:37:22.797Z,101562.65
2018-07-30T22:39:50.702Z,101556.48
2018-07-30T22:42:18.468Z,101561.01
2018-07-30T22:44:46.121Z,101555.37
2018-07-30T22:47:13.705Z,101547.95
2018-07-30T22:49:41.387Z,101548.79
2018-07-30T22:52:09.898Z,101551.23
2018-07-30T22:54:37.666Z,101553.66
2018-07-30T22:57:05.544Z,101546.63
2018-07-30T22:59:33.221Z,101547.95
2018-07-30T23:02:00.884Z,101547.27
2018-07-30T23:04:28.537Z,101542.09
2018-07-30T23:06:56.222Z,101541.81
2018-07-30T23:09:24.076Z,101546.56
2018-07-30T23:11:51.779Z,101550.94
2018-07-30T23:14:19.438Z,101547.73
2018-07-30T23:16:47.570Z,101539.67
2018-07-30T23:19:15.238Z,101538.03
2018-07-30T23:21:43.140Z,101533.31
2018-07-30T23:24:11.020Z,101536.16
2018-07-30T23:26:38.692Z,101528.86
2018-07-30T23:29:06.703Z,101527.98
2018-07-30T23:31:34.663Z,101535.59
2018-07-30T23:34:02.307Z,101527.38
2018-07-30T23:36:29.960Z,101524.31
2018-07-30T23:38:57.869Z,101533.89
2018-07-30T23:41:25.720Z,101530.91
2018-07-30T23:43:53.362Z,101525.02
2018-07-30T23:46:21.381Z,101525.90
2018-07-30T23:48:49.017Z,101526.43
2018-07-30T23:51:16.706Z,101525.09
2018-07-30T23:53:44.720Z,101523.33
2018-07-30T23:56:12.385Z,101527.39
2018-07-30T23:58:40.071Z,101519.72
